sensor_id;sensor_type;location;lat;lon;timestamp;temperature;humidity
15596;DHT22;7898;48.658;9.068;2023-06-22T00:01:17;19.50;99.90
15596;DHT22;7898;48.658;9.068;2023-06-22T00:03:44;19.40;99.90
15596;DHT22;7898;48.658;9.068;2023-06-22T00:06:11;19.40;99.90
15596;DHT22;7898;48.658;9.068;2023-06-22T00:08:38;19.30;99.90
15596;DHT22;7898;48.658;9.068;2023-06-22T00:11:05;19.30;99.90
15596;DHT22;7898;48.658;9.068;2023-06-22T00:13:32;19.20;99.90
15596;DHT22;7898;48.658;9.068;2023-06-22T00:15:58;19.20;99.90
15596;DHT22;7898;48.658;9.068;2023-06-22T00:18:27;19.20;99.90
15596;DHT22;7898;48.658;9.068;2023-06-22T00:20:56;19.10;99.90
15596;DHT22;7898;48.658;9.068;2023-06-22T00:23:24;19.10;99.90
15596;DHT22;7898;48.658;9.068;2023-06-22T00:25:51;19.20;99.90
15596;DHT22;7898;48.658;9.068;2023-06-22T00:28:18;19.20;99.90
15596;DHT22;7898;48.658;9.068;2023-06-22T00:30:45;19.20;99.90
15596;DHT22;7898;48.658;9.068;2023-06-22T00:33:13;19.20;99.90
15596;DHT22;7898;48.658;9.068;2023-06-22T00:35:42;19.10;99.90
15596;DHT22;7898;48.658;9.068;2023-06-22T00:38:09;19.00;99.90
15596;DHT22;7898;48.658;9.068;2023-06-22T00:40:37;18.90;99.90
15596;DHT22;7898;48.658;9.068;2023-06-22T00:43:04;18.90;99.90
15596;DHT22;7898;48.658;9.068;2023-06-22T00:45:31;18.80;99.90
15596;DHT22;7898;48.658;9.068;2023-06-22T00:47:59;18.80;99.90
15596;DHT22;7898;48.658;9.068;2023-06-22T00:50:28;18.80;99.90
15596;DHT22;7898;48.658;9.068;2023-06-22T00:53:01;18.80;99.90
15596;DHT22;7898;48.658;9.068;2023-06-22T00:55:32;18.70;99.90
15596;DHT22;7898;48.658;9.068;2023-06-22T00:58:01;18.80;99.90
15596;DHT22;7898;48.658;9.068;2023-06-22T01:00:28;18.70;99.90
15596;DHT22;7898;48.658;9.068;2023-06-22T01:02:55;18.70;99.90
15596;DHT22;7898;48.658;9.068;2023-06-22T01:05:22;18.80;99.90
15596;DHT22;7898;48.658;9.068;2023-06-22T01:08:03;18.90;99.90
15596;DHT22;7898;48.658;9.068;2023-06-22T01:10:35;18.90;99.90
15596;DHT22;7898;48.658;9.068;2023-06-22T01:13:08;19.00;99.90
15596;DHT22;7898;48.658;9.068;2023-06-22T01:15:43;19.10;99.90
15596;DHT22;7898;48.658;9.068;2023-06-22T01:18:15;19.00;99.90
15596;DHT22;7898;48.658;9.068;2023-06-22T01:20:44;18.90;99.90
15596;DHT22;7898;48.658;9.068;2023-06-22T01:23:20;18.90;99.90
15596;DHT22;7898;48.658;9.068;2023-06-22T01:25:59;19.00;99.90
15596;DHT22;7898;48.658;9.068;2023-06-22T01:28:45;18.90;99.90
15596;DHT22;7898;48.658;9.068;2023-06-22T01:31:14;18.70;99.90
15596;DHT22;7898;48.658;9.068;2023-06-22T01:33:45;18.70;99.90
15596;DHT22;7898;48.658;9.068;2023-06-22T01:36:13;18.70;99.90
15596;DHT22;7898;48.658;9.068;2023-06-22T01:38:42;18.70;99.90
15596;DHT22;7898;48.658;9.068;2023-06-22T01:41:10;18.60;99.90
15596;DHT22;7898;48.658;9.068;2023-06-22T01:43:39;18.60;99.90
15596;DHT22;7898;48.658;9.068;2023-06-22T01:46:06;18.50;99.90
15596;DHT22;7898;48.658;9.068;2023-06-22T01:48:33;18.60;99.90
15596;DHT22;7898;48.658;9.068;2023-06-22T01:51:01;18.70;99.90
15596;DHT22;7898;48.658;9.068;2023-06-22T01:53:28;18.60;99.90
15596;DHT22;7898;48.658;9.068;2023-06-22T01:55:56;18.60;99.90
15596;DHT22;7898;48.658;9.068;2023-06-22T01:58:26;18.50;99.90
15596;DHT22;7898;48.658;9.068;2023-06-22T02:00:58;18.50;99.90
15596;DHT22;7898;48.658;9.068;2023-06-22T02:03:30;18.70;99.90
15596;DHT22;7898;48.658;9.068;2023-06-22T02:06:02;18.70;99.90
15596;DHT22;7898;48.658;9.068;2023-06-22T02:08:32;18.60;99.90
15596;DHT22;7898;48.658;9.068;2023-06-22T02:11:02;18.60;99.90
15596;DHT22;7898;48.658;9.068;2023-06-22T02:13:30;18.50;99.90
15596;DHT22;7898;48.658;9.068;2023-06-22T02:16:00;18.60;99.90
15596;DHT22;7898;48.658;9.068;2023-06-22T02:18:27;18.70;99.90
15596;DHT22;7898;48.658;9.068;2023-06-22T02:20:54;18.60;99.90
15596;DHT22;7898;48.658;9.068;2023-06-22T02:23:21;18.50;99.90
15596;DHT22;7898;48.658;9.068;2023-06-22T02:25:48;18.60;99.90
15596;DHT22;7898;48.658;9.068;2023-06-22T02:28:15;18.50;99.90
15596;DHT22;7898;48.658;9.068;2023-06-22T02:30:42;18.60;99.90
15596;DHT22;7898;48.658;9.068;2023-06-22T02:33:10;18.50;99.90
15596;DHT22;7898;48.658;9.068;2023-06-22T02:35:37;18.40;99.90
15596;DHT22;7898;48.658;9.068;2023-06-22T02:38:05;18.30;99.90
15596;DHT22;7898;48.658;9.068;2023-06-22T02:40:32;18.40;99.90
15596;DHT22;7898;48.658;9.068;2023-06-22T02:42:59;18.40;99.90
15596;DHT22;7898;48.658;9.068;2023-06-22T02:45:27;18.30;99.90
15596;DHT22;7898;48.658;9.068;2023-06-22T02:47:55;18.30;99.90
15596;DHT22;7898;48.658;9.068;2023-06-22T02:50:23;18.20;99.90
15596;DHT22;7898;48.658;9.068;2023-06-22T02:52:51;18.20;99.90
15596;DHT22;7898;48.658;9.068;2023-06-22T02:55:18;18.10;99.90
15596;DHT22;7898;48.658;9.068;2023-06-22T02:57:45;18.10;99.90
15596;DHT22;7898;48.658;9.068;2023-06-22T03:00:14;18.10;99.90
15596;DHT22;7898;48.658;9.068;2023-06-22T03:02:43;18.10;99.90
15596;DHT22;7898;48.658;9.068;2023-06-22T03:05:10;18.00;99.90
15596;DHT22;7898;48.658;9.068;2023-06-22T03:07:41;17.90;99.90
15596;DHT22;7898;48.658;9.068;2023-06-22T03:10:08;17.90;99.90
15596;DHT22;7898;48.658;9.068;2023-06-22T03:12:36;17.90;99.90
15596;DHT22;7898;48.658;9.068;2023-06-22T03:15:04;17.80;99.90
15596;DHT22;7898;48.658;9.068;2023-06-22T03:17:31;17.80;99.90
15596;DHT22;7898;48.658;9.068;2023-06-22T03:19:57;17.80;99.90
15596;DHT22;7898;48.658;9.068;2023-06-22T03:22:24;17.80;99.90
15596;DHT22;7898;48.658;9.068;2023-06-22T03:24:52;17.90;99.90
15596;DHT22;7898;48.658;9.068;2023-06-22T03:27:19;17.90;99.90
15596;DHT22;7898;48.658;9.068;2023-06-22T03:29:47;17.90;99.90
15596;DHT22;7898;48.658;9.068;2023-06-22T03:32:13;17.90;99.90
15596;DHT22;7898;48.658;9.068;2023-06-22T03:34:40;17.90;99.90
15596;DHT22;7898;48.658;9.068;2023-06-22T03:37:12;17.90;99.90
15596;DHT22;7898;48.658;9.068;2023-06-22T03:39:40;17.90;99.90
15596;DHT22;7898;48.658;9.068;2023-06-22T03:42:08;17.90;99.90
15596;DHT22;7898;48.658;9.068;2023-06-22T03:44:35;17.90;99.90
15596;DHT22;7898;48.658;9.068;2023-06-22T03:47:02;17.80;99.90
15596;DHT22;7898;48.658;9.068;2023-06-22T03:49:29;17.80;99.90
15596;DHT22;7898;48.658;9.068;2023-06-22T03:51:56;17.80;99.90
15596;DHT22;7898;48.658;9.068;2023-06-22T03:54:23;17.80;99.90
15596;DHT22;7898;48.658;9.068;2023-06-22T03:56:49;17.80;99.90
15596;DHT22;7898;48.658;9.068;2023-06-22T03:59:18;17.80;99.90
15596;DHT22;7898;48.658;9.068;2023-06-22T04:01:44;17.80;99.90
15596;DHT22;7898;48.658;9.068;2023-06-22T04:04:12;17.80;99.90
15596;DHT22;7898;48.658;9.068;2023-06-22T04:06:39;17.90;99.90
15596;DHT22;7898;48.658;9.068;2023-06-22T04:09:06;17.90;99.90
15596;DHT22;7898;48.658;9.068;2023-06-22T04:11:33;17.90;99.90
15596;DHT22;7898;48.658;9.068;2023-06-22T04:14:00;17.90;99.90
15596;DHT22;7898;48.658;9.068;2023-06-22T04:16:28;18.00;99.90
15596;DHT22;7898;48.658;9.068;2023-06-22T04:18:55;17.90;99.90
15596;DHT22;7898;48.658;9.068;2023-06-22T04:21:22;17.90;99.90
15596;DHT22;7898;48.658;9.068;2023-06-22T04:23:49;17.90;99.90
15596;DHT22;7898;48.658;9.068;2023-06-22T04:26:15;18.00;99.90
15596;DHT22;7898;48.658;9.068;2023-06-22T04:28:42;18.00;99.90
15596;DHT22;7898;48.658;9.068;2023-06-22T04:31:17;18.10;99.90
15596;DHT22;7898;48.658;9.068;2023-06-22T04:33:45;18.20;99.90
15596;DHT22;7898;48.658;9.068;2023-06-22T04:36:12;18.40;99.90
15596;DHT22;7898;48.658;9.068;2023-06-22T04:38:40;18.40;99.90
15596;DHT22;7898;48.658;9.068;2023-06-22T04:41:07;18.50;99.90
15596;DHT22;7898;48.658;9.068;2023-06-22T04:43:39;18.60;99.90
15596;DHT22;7898;48.658;9.068;2023-06-22T04:46:06;18.70;99.90
15596;DHT22;7898;48.658;9.068;2023-06-22T04:48:33;18.80;99.90
15596;DHT22;7898;48.658;9.068;2023-06-22T04:51:01;19.00;99.90
15596;DHT22;7898;48.658;9.068;2023-06-22T04:53:30;19.00;99.90
15596;DHT22;7898;48.658;9.068;2023-06-22T04:55:57;19.20;99.90
15596;DHT22;7898;48.658;9.068;2023-06-22T04:58:24;19.20;99.90
15596;DHT22;7898;48.658;9.068;2023-06-22T05:00:54;19.40;99.90
15596;DHT22;7898;48.658;9.068;2023-06-22T05:03:24;19.50;99.90
15596;DHT22;7898;48.658;9.068;2023-06-22T05:05:51;19.70;99.90
15596;DHT22;7898;48.658;9.068;2023-06-22T05:08:20;19.80;99.90
15596;DHT22;7898;48.658;9.068;2023-06-22T05:10:53;19.90;99.90
15596;DHT22;7898;48.658;9.068;2023-06-22T05:13:20;20.00;99.90
15596;DHT22;7898;48.658;9.068;2023-06-22T05:15:47;20.10;99.90
15596;DHT22;7898;48.658;9.068;2023-06-22T05:18:14;20.20;99.90
15596;DHT22;7898;48.658;9.068;2023-06-22T05:20:41;20.30;99.90
15596;DHT22;7898;48.658;9.068;2023-06-22T05:23:08;20.50;99.90
15596;DHT22;7898;48.658;9.068;2023-06-22T05:25:36;20.60;99.90
15596;DHT22;7898;48.658;9.068;2023-06-22T05:28:03;20.70;99.90
15596;DHT22;7898;48.658;9.068;2023-06-22T05:30:36;20.80;99.90
15596;DHT22;7898;48.658;9.068;2023-06-22T05:33:03;21.00;99.90
15596;DHT22;7898;48.658;9.068;2023-06-22T05:35:30;21.20;99.90
15596;DHT22;7898;48.658;9.068;2023-06-22T05:37:57;21.30;99.90
15596;DHT22;7898;48.658;9.068;2023-06-22T05:40:24;21.40;99.90
15596;DHT22;7898;48.658;9.068;2023-06-22T05:42:52;21.60;99.90
15596;DHT22;7898;48.658;9.068;2023-06-22T05:45:19;21.70;99.90
15596;DHT22;7898;48.658;9.068;2023-06-22T05:47:46;21.90;99.90
15596;DHT22;7898;48.658;9.068;2023-06-22T05:50:13;22.00;99.90
15596;DHT22;7898;48.658;9.068;2023-06-22T05:52:40;22.10;99.90
15596;DHT22;7898;48.658;9.068;2023-06-22T05:55:07;22.20;99.90
15596;DHT22;7898;48.658;9.068;2023-06-22T05:57:34;22.20;99.90
15596;DHT22;7898;48.658;9.068;2023-06-22T06:00:03;22.30;99.90
15596;DHT22;7898;48.658;9.068;2023-06-22T06:02:35;22.30;99.90
15596;DHT22;7898;48.658;9.068;2023-06-22T06:05:02;22.30;99.90
15596;DHT22;7898;48.658;9.068;2023-06-22T06:07:29;22.30;99.90
15596;DHT22;7898;48.658;9.068;2023-06-22T06:09:56;22.30;99.90
15596;DHT22;7898;48.658;9.068;2023-06-22T06:12:23;22.20;99.90
15596;DHT22;7898;48.658;9.068;2023-06-22T06:14:50;22.30;99.90
15596;DHT22;7898;48.658;9.068;2023-06-22T06:17:20;22.40;99.90
15596;DHT22;7898;48.658;9.068;2023-06-22T06:19:47;22.60;99.90
15596;DHT22;7898;48.658;9.068;2023-06-22T06:22:14;22.80;99.90
15596;DHT22;7898;48.658;9.068;2023-06-22T06:24:40;23.00;99.90
15596;DHT22;7898;48.658;9.068;2023-06-22T06:27:07;23.20;99.90
15596;DHT22;7898;48.658;9.068;2023-06-22T06:29:34;23.30;99.90
15596;DHT22;7898;48.658;9.068;2023-06-22T06:32:01;23.50;99.90
15596;DHT22;7898;48.658;9.068;2023-06-22T06:34:29;23.60;99.90
15596;DHT22;7898;48.658;9.068;2023-06-22T06:36:56;23.70;99.90
15596;DHT22;7898;48.658;9.068;2023-06-22T06:39:23;23.90;99.90
15596;DHT22;7898;48.658;9.068;2023-06-22T06:41:50;24.10;99.90
15596;DHT22;7898;48.658;9.068;2023-06-22T06:44:17;24.30;99.90
15596;DHT22;7898;48.658;9.068;2023-06-22T06:46:44;24.40;99.90
15596;DHT22;7898;48.658;9.068;2023-06-22T06:49:11;24.50;99.90
15596;DHT22;7898;48.658;9.068;2023-06-22T06:51:40;24.70;99.90
15596;DHT22;7898;48.658;9.068;2023-06-22T06:54:07;24.90;99.90
15596;DHT22;7898;48.658;9.068;2023-06-22T06:56:34;25.10;99.90
15596;DHT22;7898;48.658;9.068;2023-06-22T06:59:00;25.30;99.90
15596;DHT22;7898;48.658;9.068;2023-06-22T07:01:27;25.60;99.90
15596;DHT22;7898;48.658;9.068;2023-06-22T07:03:59;26.00;99.90
15596;DHT22;7898;48.658;9.068;2023-06-22T07:06:26;26.40;99.90
15596;DHT22;7898;48.658;9.068;2023-06-22T07:08:59;26.60;99.90
15596;DHT22;7898;48.658;9.068;2023-06-22T07:11:26;27.00;99.90
15596;DHT22;7898;48.658;9.068;2023-06-22T07:13:53;27.20;99.90
15596;DHT22;7898;48.658;9.068;2023-06-22T07:16:20;27.20;99.90
15596;DHT22;7898;48.658;9.068;2023-06-22T07:18:47;27.30;99.90
15596;DHT22;7898;48.658;9.068;2023-06-22T07:21:13;27.40;99.90
15596;DHT22;7898;48.658;9.068;2023-06-22T07:23:40;27.60;99.90
15596;DHT22;7898;48.658;9.068;2023-06-22T07:26:08;27.50;99.90
15596;DHT22;7898;48.658;9.068;2023-06-22T07:28:38;27.70;99.90
15596;DHT22;7898;48.658;9.068;2023-06-22T07:31:06;27.80;99.90
15596;DHT22;7898;48.658;9.068;2023-06-22T07:33:33;27.70;99.90
15596;DHT22;7898;48.658;9.068;2023-06-22T07:36:00;27.60;99.90
15596;DHT22;7898;48.658;9.068;2023-06-22T07:38:28;27.70;99.90
15596;DHT22;7898;48.658;9.068;2023-06-22T07:40:55;27.60;99.90
15596;DHT22;7898;48.658;9.068;2023-06-22T07:43:23;27.90;99.90
15596;DHT22;7898;48.658;9.068;2023-06-22T07:45:50;27.60;99.90
15596;DHT22;7898;48.658;9.068;2023-06-22T07:48:20;27.60;99.90
15596;DHT22;7898;48.658;9.068;2023-06-22T07:50:47;27.30;99.90
15596;DHT22;7898;48.658;9.068;2023-06-22T07:53:14;27.00;99.90
15596;DHT22;7898;48.658;9.068;2023-06-22T07:55:41;27.10;99.90
15596;DHT22;7898;48.658;9.068;2023-06-22T07:58:08;27.20;99.90
15596;DHT22;7898;48.658;9.068;2023-06-22T08:00:36;27.30;99.90
15596;DHT22;7898;48.658;9.068;2023-06-22T08:03:03;27.50;99.90
15596;DHT22;7898;48.658;9.068;2023-06-22T08:05:30;27.60;99.90
15596;DHT22;7898;48.658;9.068;2023-06-22T08:07:57;27.80;99.90
15596;DHT22;7898;48.658;9.068;2023-06-22T08:10:24;28.10;99.90
15596;DHT22;7898;48.658;9.068;2023-06-22T08:12:51;28.20;99.90
15596;DHT22;7898;48.658;9.068;2023-06-22T08:15:18;28.10;99.90
15596;DHT22;7898;48.658;9.068;2023-06-22T08:17:47;28.10;99.90
15596;DHT22;7898;48.658;9.068;2023-06-22T08:20:14;27.90;99.90
15596;DHT22;7898;48.658;9.068;2023-06-22T08:22:41;27.50;99.90
15596;DHT22;7898;48.658;9.068;2023-06-22T08:25:09;27.50;99.90
15596;DHT22;7898;48.658;9.068;2023-06-22T08:27:37;27.60;99.90
15596;DHT22;7898;48.658;9.068;2023-06-22T08:30:05;27.50;99.90
15596;DHT22;7898;48.658;9.068;2023-06-22T08:32:31;27.30;99.90
15596;DHT22;7898;48.658;9.068;2023-06-22T08:35:00;27.20;99.90
15596;DHT22;7898;48.658;9.068;2023-06-22T08:37:28;27.10;99.90
15596;DHT22;7898;48.658;9.068;2023-06-22T08:39:56;27.10;99.90
15596;DHT22;7898;48.658;9.068;2023-06-22T08:42:23;27.10;99.90
15596;DHT22;7898;48.658;9.068;2023-06-22T08:44:51;27.20;99.90
15596;DHT22;7898;48.658;9.068;2023-06-22T08:47:18;27.20;99.90
15596;DHT22;7898;48.658;9.068;2023-06-22T08:49:45;27.20;99.90
15596;DHT22;7898;48.658;9.068;2023-06-22T08:52:14;27.20;99.90
15596;DHT22;7898;48.658;9.068;2023-06-22T08:54:41;27.40;99.90
15596;DHT22;7898;48.658;9.068;2023-06-22T08:57:07;27.30;99.90
15596;DHT22;7898;48.658;9.068;2023-06-22T08:59:34;27.30;99.90
15596;DHT22;7898;48.658;9.068;2023-06-22T09:02:01;27.30;99.90
15596;DHT22;7898;48.658;9.068;2023-06-22T09:04:28;27.20;99.90
15596;DHT22;7898;48.658;9.068;2023-06-22T09:06:55;27.20;99.90
15596;DHT22;7898;48.658;9.068;2023-06-22T09:09:23;27.10;99.90
15596;DHT22;7898;48.658;9.068;2023-06-22T09:11:50;27.20;99.90
15596;DHT22;7898;48.658;9.068;2023-06-22T09:14:17;27.60;99.90
15596;DHT22;7898;48.658;9.068;2023-06-22T09:16:44;27.80;99.90
15596;DHT22;7898;48.658;9.068;2023-06-22T09:19:11;28.10;99.90
15596;DHT22;7898;48.658;9.068;2023-06-22T09:21:38;28.30;99.90
15596;DHT22;7898;48.658;9.068;2023-06-22T09:24:06;28.60;99.90
15596;DHT22;7898;48.658;9.068;2023-06-22T09:26:35;28.90;99.90
15596;DHT22;7898;48.658;9.068;2023-06-22T09:29:04;29.00;99.90
15596;DHT22;7898;48.658;9.068;2023-06-22T09:31:31;29.10;99.90
15596;DHT22;7898;48.658;9.068;2023-06-22T09:33:58;29.30;99.90
15596;DHT22;7898;48.658;9.068;2023-06-22T09:36:25;29.30;99.90
15596;DHT22;7898;48.658;9.068;2023-06-22T09:38:52;29.10;99.90
15596;DHT22;7898;48.658;9.068;2023-06-22T09:41:24;29.00;99.90
15596;DHT22;7898;48.658;9.068;2023-06-22T09:43:52;29.00;99.90
15596;DHT22;7898;48.658;9.068;2023-06-22T09:46:19;29.00;99.90
15596;DHT22;7898;48.658;9.068;2023-06-22T09:48:47;28.90;99.90
15596;DHT22;7898;48.658;9.068;2023-06-22T09:51:14;28.80;99.90
15596;DHT22;7898;48.658;9.068;2023-06-22T09:53:41;28.90;99.90
15596;DHT22;7898;48.658;9.068;2023-06-22T09:56:09;28.90;99.90
15596;DHT22;7898;48.658;9.068;2023-06-22T09:58:40;28.80;99.90
15596;DHT22;7898;48.658;9.068;2023-06-22T10:01:08;28.80;99.90
15596;DHT22;7898;48.658;9.068;2023-06-22T10:03:35;28.70;99.90
15596;DHT22;7898;48.658;9.068;2023-06-22T10:06:03;28.70;99.90
15596;DHT22;7898;48.658;9.068;2023-06-22T10:08:29;28.60;99.90
15596;DHT22;7898;48.658;9.068;2023-06-22T10:10:56;28.70;99.90
15596;DHT22;7898;48.658;9.068;2023-06-22T10:13:23;28.70;99.90
15596;DHT22;7898;48.658;9.068;2023-06-22T10:15:50;28.90;99.90
15596;DHT22;7898;48.658;9.068;2023-06-22T10:18:19;29.00;99.90
15596;DHT22;7898;48.658;9.068;2023-06-22T10:20:48;29.30;99.90
15596;DHT22;7898;48.658;9.068;2023-06-22T10:23:16;29.50;99.90
15596;DHT22;7898;48.658;9.068;2023-06-22T10:25:43;29.70;99.90
15596;DHT22;7898;48.658;9.068;2023-06-22T10:28:10;29.80;99.90
15596;DHT22;7898;48.658;9.068;2023-06-22T10:30:38;29.80;99.90
15596;DHT22;7898;48.658;9.068;2023-06-22T10:33:06;29.70;99.90
15596;DHT22;7898;48.658;9.068;2023-06-22T10:35:35;29.80;99.90
15596;DHT22;7898;48.658;9.068;2023-06-22T10:38:03;29.90;99.90
15596;DHT22;7898;48.658;9.068;2023-06-22T10:40:30;29.90;99.90
15596;DHT22;7898;48.658;9.068;2023-06-22T10:42:57;30.00;99.90
15596;DHT22;7898;48.658;9.068;2023-06-22T10:45:24;30.00;99.90
15596;DHT22;7898;48.658;9.068;2023-06-22T10:47:52;29.90;99.90
15596;DHT22;7898;48.658;9.068;2023-06-22T10:50:19;29.70;99.90
15596;DHT22;7898;48.658;9.068;2023-06-22T10:52:48;29.50;99.90
15596;DHT22;7898;48.658;9.068;2023-06-22T10:55:14;29.50;99.90
15596;DHT22;7898;48.658;9.068;2023-06-22T10:57:41;29.50;99.90
15596;DHT22;7898;48.658;9.068;2023-06-22T11:00:11;29.60;99.90
15596;DHT22;7898;48.658;9.068;2023-06-22T11:02:38;29.70;99.90
15596;DHT22;7898;48.658;9.068;2023-06-22T11:05:05;29.80;99.90
15596;DHT22;7898;48.658;9.068;2023-06-22T11:07:32;29.80;99.90
15596;DHT22;7898;48.658;9.068;2023-06-22T11:10:01;29.70;99.90
15596;DHT22;7898;48.658;9.068;2023-06-22T11:12:28;29.50;99.90
15596;DHT22;7898;48.658;9.068;2023-06-22T11:14:54;29.50;99.90
15596;DHT22;7898;48.658;9.068;2023-06-22T11:17:22;29.50;99.90
15596;DHT22;7898;48.658;9.068;2023-06-22T11:19:50;29.50;99.90
15596;DHT22;7898;48.658;9.068;2023-06-22T11:22:17;29.50;99.90
15596;DHT22;7898;48.658;9.068;2023-06-22T11:24:44;29.50;99.90
15596;DHT22;7898;48.658;9.068;2023-06-22T11:27:12;29.50;99.90
15596;DHT22;7898;48.658;9.068;2023-06-22T11:29:39;29.50;99.90
15596;DHT22;7898;48.658;9.068;2023-06-22T11:32:07;29.60;99.90
15596;DHT22;7898;48.658;9.068;2023-06-22T11:34:34;29.70;99.90
15596;DHT22;7898;48.658;9.068;2023-06-22T11:37:01;29.70;99.90
15596;DHT22;7898;48.658;9.068;2023-06-22T11:39:28;29.80;99.90
15596;DHT22;7898;48.658;9.068;2023-06-22T11:41:55;29.90;99.90
15596;DHT22;7898;48.658;9.068;2023-06-22T11:44:23;30.00;99.90
15596;DHT22;7898;48.658;9.068;2023-06-22T11:46:50;30.00;99.90
15596;DHT22;7898;48.658;9.068;2023-06-22T11:49:17;29.90;99.90
15596;DHT22;7898;48.658;9.068;2023-06-22T11:51:43;29.70;99.90
15596;DHT22;7898;48.658;9.068;2023-06-22T11:54:10;29.70;99.90
15596;DHT22;7898;48.658;9.068;2023-06-22T11:56:37;29.60;99.90
15596;DHT22;7898;48.658;9.068;2023-06-22T11:59:04;29.50;99.90
15596;DHT22;7898;48.658;9.068;2023-06-22T12:01:32;29.50;99.90
15596;DHT22;7898;48.658;9.068;2023-06-22T12:03:59;29.60;99.90
15596;DHT22;7898;48.658;9.068;2023-06-22T12:06:26;29.50;99.90
15596;DHT22;7898;48.658;9.068;2023-06-22T12:08:53;29.50;99.90
15596;DHT22;7898;48.658;9.068;2023-06-22T12:11:20;29.50;99.90
15596;DHT22;7898;48.658;9.068;2023-06-22T12:13:47;29.40;99.90
15596;DHT22;7898;48.658;9.068;2023-06-22T12:16:14;29.50;99.90
15596;DHT22;7898;48.658;9.068;2023-06-22T12:18:42;29.50;99.90
15596;DHT22;7898;48.658;9.068;2023-06-22T12:21:09;29.50;99.90
15596;DHT22;7898;48.658;9.068;2023-06-22T12:23:36;29.40;99.90
15596;DHT22;7898;48.658;9.068;2023-06-22T12:26:02;29.20;99.90
15596;DHT22;7898;48.658;9.068;2023-06-22T12:28:29;29.10;99.90
15596;DHT22;7898;48.658;9.068;2023-06-22T12:30:56;29.00;99.90
15596;DHT22;7898;48.658;9.068;2023-06-22T12:33:23;28.80;99.90
15596;DHT22;7898;48.658;9.068;2023-06-22T12:35:51;28.70;99.90
15596;DHT22;7898;48.658;9.068;2023-06-22T12:38:18;28.70;99.90
15596;DHT22;7898;48.658;9.068;2023-06-22T12:40:45;28.70;99.90
15596;DHT22;7898;48.658;9.068;2023-06-22T12:43:15;28.80;99.90
15596;DHT22;7898;48.658;9.068;2023-06-22T12:45:42;28.80;99.90
15596;DHT22;7898;48.658;9.068;2023-06-22T12:48:08;28.80;99.90
15596;DHT22;7898;48.658;9.068;2023-06-22T12:50:35;28.70;99.90
15596;DHT22;7898;48.658;9.068;2023-06-22T12:53:04;28.70;99.90
15596;DHT22;7898;48.658;9.068;2023-06-22T12:55:31;28.70;99.90
15596;DHT22;7898;48.658;9.068;2023-06-22T12:57:58;28.70;99.90
15596;DHT22;7898;48.658;9.068;2023-06-22T13:00:25;28.70;99.90
15596;DHT22;7898;48.658;9.068;2023-06-22T13:02:52;28.70;99.90
15596;DHT22;7898;48.658;9.068;2023-06-22T13:05:19;28.70;99.90
15596;DHT22;7898;48.658;9.068;2023-06-22T13:07:46;28.70;99.90
15596;DHT22;7898;48.658;9.068;2023-06-22T13:10:14;28.70;99.90
15596;DHT22;7898;48.658;9.068;2023-06-22T13:12:41;28.80;99.90
15596;DHT22;7898;48.658;9.068;2023-06-22T13:15:08;28.80;99.90
15596;DHT22;7898;48.658;9.068;2023-06-22T13:17:35;29.00;99.90
15596;DHT22;7898;48.658;9.068;2023-06-22T13:20:02;29.10;99.90
15596;DHT22;7898;48.658;9.068;2023-06-22T13:22:32;29.30;99.90
15596;DHT22;7898;48.658;9.068;2023-06-22T13:25:00;29.40;99.90
15596;DHT22;7898;48.658;9.068;2023-06-22T13:27:29;29.50;99.90
15596;DHT22;7898;48.658;9.068;2023-06-22T13:29:55;29.50;99.90
15596;DHT22;7898;48.658;9.068;2023-06-22T13:32:22;29.50;99.90
15596;DHT22;7898;48.658;9.068;2023-06-22T13:34:50;29.50;99.90
15596;DHT22;7898;48.658;9.068;2023-06-22T13:37:17;29.60;99.90
15596;DHT22;7898;48.658;9.068;2023-06-22T13:39:44;29.60;99.90
15596;DHT22;7898;48.658;9.068;2023-06-22T13:42:11;29.60;99.90
15596;DHT22;7898;48.658;9.068;2023-06-22T13:44:40;29.60;99.90
15596;DHT22;7898;48.658;9.068;2023-06-22T13:47:08;29.60;99.90
15596;DHT22;7898;48.658;9.068;2023-06-22T13:49:35;29.60;99.90
15596;DHT22;7898;48.658;9.068;2023-06-22T13:52:02;29.60;99.90
15596;DHT22;7898;48.658;9.068;2023-06-22T13:54:29;29.60;99.90
15596;DHT22;7898;48.658;9.068;2023-06-22T13:56:56;29.70;99.90
15596;DHT22;7898;48.658;9.068;2023-06-22T13:59:23;30.00;99.90
15596;DHT22;7898;48.658;9.068;2023-06-22T14:01:53;30.20;99.90
15596;DHT22;7898;48.658;9.068;2023-06-22T14:04:21;30.30;99.90
15596;DHT22;7898;48.658;9.068;2023-06-22T14:06:48;30.60;99.90
15596;DHT22;7898;48.658;9.068;2023-06-22T14:09:14;30.90;99.90
15596;DHT22;7898;48.658;9.068;2023-06-22T14:11:41;31.10;99.90
15596;DHT22;7898;48.658;9.068;2023-06-22T14:14:08;31.40;99.90
15596;DHT22;7898;48.658;9.068;2023-06-22T14:16:35;31.40;99.90
15596;DHT22;7898;48.658;9.068;2023-06-22T14:19:03;31.40;99.90
15596;DHT22;7898;48.658;9.068;2023-06-22T14:21:30;31.20;99.90
15596;DHT22;7898;48.658;9.068;2023-06-22T14:23:57;31.10;99.90
15596;DHT22;7898;48.658;9.068;2023-06-22T14:26:24;31.00;99.90
15596;DHT22;7898;48.658;9.068;2023-06-22T14:28:51;30.90;99.90
15596;DHT22;7898;48.658;9.068;2023-06-22T14:31:19;31.20;99.90
15596;DHT22;7898;48.658;9.068;2023-06-22T14:33:47;31.70;99.90
15596;DHT22;7898;48.658;9.068;2023-06-22T14:36:16;32.10;99.90
15596;DHT22;7898;48.658;9.068;2023-06-22T14:38:43;32.40;99.90
15596;DHT22;7898;48.658;9.068;2023-06-22T14:41:11;32.70;99.90
15596;DHT22;7898;48.658;9.068;2023-06-22T14:43:38;33.10;99.90
15596;DHT22;7898;48.658;9.068;2023-06-22T14:46:05;33.30;99.90
15596;DHT22;7898;48.658;9.068;2023-06-22T14:48:32;33.30;99.80
15596;DHT22;7898;48.658;9.068;2023-06-22T14:50:59;33.20;98.60
15596;DHT22;7898;48.658;9.068;2023-06-22T14:53:28;32.70;97.90
15596;DHT22;7898;48.658;9.068;2023-06-22T14:55:55;32.50;99.20
15596;DHT22;7898;48.658;9.068;2023-06-22T14:58:22;32.20;98.30
15596;DHT22;7898;48.658;9.068;2023-06-22T15:00:48;31.90;99.20
15596;DHT22;7898;48.658;9.068;2023-06-22T15:03:16;31.80;98.60
15596;DHT22;7898;48.658;9.068;2023-06-22T15:05:47;31.60;99.30
15596;DHT22;7898;48.658;9.068;2023-06-22T15:08:14;31.50;99.30
15596;DHT22;7898;48.658;9.068;2023-06-22T15:10:42;31.30;99.60
15596;DHT22;7898;48.658;9.068;2023-06-22T15:13:09;31.30;99.90
15596;DHT22;7898;48.658;9.068;2023-06-22T15:15:36;31.50;99.70
15596;DHT22;7898;48.658;9.068;2023-06-22T15:18:03;31.80;98.50
15596;DHT22;7898;48.658;9.068;2023-06-22T15:20:30;32.00;98.50
15596;DHT22;7898;48.658;9.068;2023-06-22T15:22:57;32.00;98.30
15596;DHT22;7898;48.658;9.068;2023-06-22T15:25:24;31.90;98.50
15596;DHT22;7898;48.658;9.068;2023-06-22T15:27:52;31.90;97.60
15596;DHT22;7898;48.658;9.068;2023-06-22T15:30:19;31.60;97.50
15596;DHT22;7898;48.658;9.068;2023-06-22T15:32:46;31.40;97.80
15596;DHT22;7898;48.658;9.068;2023-06-22T15:35:14;31.20;98.70
15596;DHT22;7898;48.658;9.068;2023-06-22T15:37:43;31.10;98.70
15596;DHT22;7898;48.658;9.068;2023-06-22T15:40:10;30.90;98.80
15596;DHT22;7898;48.658;9.068;2023-06-22T15:42:37;30.80;98.50
15596;DHT22;7898;48.658;9.068;2023-06-22T15:45:06;30.60;98.80
15596;DHT22;7898;48.658;9.068;2023-06-22T15:47:33;30.50;99.00